Aérodrome :
LOGIN :

S'inscrire | Disclaimer

   EN    FR    IT 

 










Légende :    VFR   VFR Marginal   IFR   IFR Intensif   IFR Très Intensif
Visi : 
Plafond : 
>= 8 km
>= 3000ft
5 à 8 km
1000 à 3000 ft
1500m à 5 km
500 à 1000 ft
800 à 1500m
200 à 500 ft
< 800m
< 200 ft
Symboles :   Orages  Brouillard  Fortes neiges  Fortes précipitations  Vent > 20 kt
SIGMETs :   Divers  Orages  Givrage  Turbulence  Onde Orograph.  Cendres Volcan.







- Altitude de l'aérodrome : 72 ft
- Code IATA : UDE


EHVK - Volkel Airbase

DERNIER METAR :
  • 270255Z AUTO 06006KT 9999 BKN110 BKN290 17/11 Q1018 BLU

METARs EXPIRÉS :
  • 270225Z AUTO 06006KT 9999 BKN200 OVC280 17/11 Q1018 BLU
  • 270155Z AUTO 06004KT 030V100 9999 OVC200 17/11 Q1018 BLU
  • 270125Z AUTO 06005KT 040V100 9999 NCD 17/11 Q1018 BLU
  • 270055Z AUTO 05005KT 9999 NCD 18/11 Q1018 BLU
  • 270025Z AUTO 05005KT 9999 BKN160 19/12 Q1018 BLU

Prévision TAF périmée.
Pas de NOTAMs connus pour ce terrain.



MET'MAP, la Météo Aéronautique d'un coup d'oeil ! - Copyright ORBIFLY Décembre 2007 - Disclaimer

ORBIFLY MET'MAP TEAM :

Programmation & Développement : Alexandra Zaïnal
Conception & Développement : Baudouin d'Aumeries
Co-Programmation & Développement : Marc-Olivier Méhu
Soutien technique & logistique : Manuel Goepfert

Contact : metmap@orbifly.com




SOURCES & CREDITS :

   NOAA